createdAt,value
2018-01-10T00:01:13.513Z,4.19
2018-01-10T00:03:41.984Z,4.24
2018-01-10T00:06:10.586Z,4.36
2018-01-10T00:08:39.056Z,4.20
2018-01-10T00:11:07.695Z,4.23
2018-01-10T00:13:36.389Z,3.93
2018-01-10T00:16:05.078Z,4.21
2018-01-10T00:18:33.757Z,3.97
2018-01-10T00:21:02.452Z,4.00
2018-01-10T00:23:30.915Z,4.01
2018-01-10T00:25:59.439Z,3.95
2018-01-10T00:28:28.139Z,3.91
2018-01-10T00:30:56.812Z,3.89
2018-01-10T00:33:25.314Z,3.84
2018-01-10T00:35:53.946Z,3.91
2018-01-10T00:38:22.603Z,3.52
2018-01-10T00:40:51.128Z,3.68
2018-01-10T00:43:19.776Z,3.52
2018-01-10T00:45:48.288Z,3.41
2018-01-10T00:48:16.747Z,3.38
2018-01-10T00:50:45.215Z,3.28
2018-01-10T00:53:13.722Z,3.25
2018-01-10T00:55:42.424Z,3.16
2018-01-10T00:58:10.940Z,3.45
2018-01-10T01:00:39.423Z,3.28
2018-01-10T01:03:08.041Z,3.24
2018-01-10T01:05:36.536Z,3.31
2018-01-10T01:08:05.227Z,3.07
2018-01-10T01:10:33.697Z,3.14
2018-01-10T01:13:02.581Z,3.20
2018-01-10T01:15:31.297Z,3.22
2018-01-10T01:17:59.944Z,3.25
2018-01-10T01:20:28.666Z,3.15
2018-01-10T01:22:57.903Z,3.09
2018-01-10T01:25:26.399Z,3.29
2018-01-10T01:27:55.190Z,3.23
2018-01-10T01:30:23.679Z,3.07
2018-01-10T01:32:52.129Z,3.20
2018-01-10T01:35:20.621Z,3.24
2018-01-10T01:37:49.256Z,2.98
2018-01-10T01:40:17.751Z,2.87
2018-01-10T01:42:46.374Z,2.96
2018-01-10T01:45:15.548Z,2.88
2018-01-10T01:47:44.164Z,2.85
2018-01-10T01:50:12.647Z,2.89
2018-01-10T01:52:41.136Z,2.78
2018-01-10T01:55:09.645Z,2.76
2018-01-10T01:57:38.308Z,2.71
2018-01-10T02:00:07.062Z,2.88
2018-01-10T02:02:35.734Z,2.93
2018-01-10T02:05:04.237Z,2.61
2018-01-10T02:07:32.731Z,2.61
2018-01-10T02:10:01.308Z,2.68
2018-01-10T02:12:30.044Z,2.78
2018-01-10T02:14:58.534Z,2.69
2018-01-10T02:17:27.285Z,2.71
2018-01-10T02:19:55.851Z,2.80
2018-01-10T02:22:24.464Z,2.89
2018-01-10T02:24:52.917Z,3.05
2018-01-10T02:27:21.521Z,3.07
2018-01-10T02:29:50.200Z,2.92
2018-01-10T02:32:18.781Z,2.80
2018-01-10T02:34:47.254Z,2.98
2018-01-10T02:37:16.560Z,3.10
2018-01-10T02:39:45.152Z,3.10
2018-01-10T02:42:22.524Z,3.15
2018-01-10T02:44:51.575Z,2.99
2018-01-10T02:47:20.140Z,2.94
2018-01-10T02:49:48.647Z,3.07
2018-01-10T02:52:17.133Z,3.11
2018-01-10T02:54:45.585Z,3.02
2018-01-10T02:57:14.157Z,3.02
2018-01-10T02:59:45.488Z,3.06
2018-01-10T03:02:14.023Z,2.99
2018-01-10T03:04:42.653Z,3.07
2018-01-10T03:07:11.411Z,3.09
2018-01-10T03:09:40.005Z,3.17
2018-01-10T03:12:08.535Z,2.96
2018-01-10T03:14:36.997Z,3.10
2018-01-10T03:17:05.538Z,3.11
2018-01-10T03:19:34.079Z,2.99
2018-01-10T03:22:02.661Z,3.01
2018-01-10T03:24:31.113Z,3.03
2018-01-10T03:26:59.635Z,2.97
2018-01-10T03:29:28.284Z,2.98
2018-01-10T03:31:56.836Z,2.98
2018-01-10T03:34:25.457Z,2.88
2018-01-10T03:36:53.982Z,2.80
2018-01-10T03:39:22.624Z,2.81
2018-01-10T03:41:51.356Z,2.83
2018-01-10T03:44:19.996Z,2.81
2018-01-10T03:46:48.479Z,2.90
2018-01-10T03:49:17.160Z,2.97
2018-01-10T03:51:45.862Z,2.86
2018-01-10T03:54:14.351Z,2.86
2018-01-10T03:56:42.858Z,2.89
2018-01-10T03:59:11.430Z,2.95
2018-01-10T04:01:40.024Z,2.96
2018-01-10T04:04:08.484Z,2.88
2018-01-10T04:06:36.967Z,2.78
2018-01-10T04:09:05.776Z,2.84
2018-01-10T04:11:34.296Z,2.92
2018-01-10T04:14:02.808Z,2.84
2018-01-10T04:16:31.336Z,2.69
2018-01-10T04:18:59.836Z,2.77
2018-01-10T04:21:28.366Z,2.82
2018-01-10T04:23:56.913Z,2.96
2018-01-10T04:26:25.412Z,2.78
2018-01-10T04:28:54.074Z,2.84
2018-01-10T04:31:23.381Z,2.81
2018-01-10T04:33:51.883Z,2.83
2018-01-10T04:36:20.393Z,2.68
2018-01-10T04:38:48.891Z,2.84
2018-01-10T04:41:17.428Z,2.90
2018-01-10T04:43:45.890Z,2.73
2018-01-10T04:46:14.374Z,2.72
2018-01-10T04:48:42.857Z,2.85
2018-01-10T04:51:11.376Z,2.73
2018-01-10T04:53:39.885Z,2.90
2018-01-10T04:56:08.505Z,2.90
2018-01-10T04:58:38.919Z,2.70
2018-01-10T05:04:02.712Z,2.77
2018-01-10T05:06:31.067Z,2.73
2018-01-10T05:08:59.342Z,2.88
2018-01-10T05:11:27.698Z,2.73
2018-01-10T05:13:56.048Z,2.80
2018-01-10T05:16:24.376Z,2.56
2018-01-10T05:18:52.727Z,2.78
2018-01-10T05:21:21.178Z,2.96
2018-01-10T05:23:49.743Z,2.76
2018-01-10T05:26:18.090Z,2.76
2018-01-10T05:28:46.541Z,2.53
2018-01-10T05:31:14.893Z,2.71
2018-01-10T05:33:43.201Z,2.83
2018-01-10T05:36:11.652Z,2.87
2018-01-10T05:38:39.958Z,2.46
2018-01-10T05:41:08.431Z,2.44
2018-01-10T05:43:36.755Z,2.57
2018-01-10T05:46:05.300Z,2.68
2018-01-10T05:48:33.572Z,2.63
2018-01-10T05:51:02.539Z,2.44
2018-01-10T05:53:30.824Z,2.47
2018-01-10T05:55:59.150Z,2.33
2018-01-10T05:58:27.444Z,2.37
2018-01-10T06:00:56.364Z,2.45
2018-01-10T06:03:25.054Z,2.23
2018-01-10T06:05:54.100Z,2.43
2018-01-10T06:08:27.088Z,2.52
2018-01-10T06:10:56.411Z,2.56
2018-01-10T06:13:26.826Z,2.47
2018-01-10T06:15:56.846Z,2.55
2018-01-10T06:18:26.559Z,2.65
2018-01-10T06:20:56.787Z,2.48
2018-01-10T06:23:27.125Z,2.49
2018-01-10T06:26:01.823Z,2.43
2018-01-10T06:28:32.526Z,2.62
2018-01-10T06:31:01.466Z,2.54
2018-01-10T06:33:33.435Z,2.37
2018-01-10T06:36:02.906Z,2.51
2018-01-10T06:38:31.165Z,2.54
2018-01-10T06:40:59.747Z,2.57
2018-01-10T06:43:28.168Z,2.63
2018-01-10T06:45:56.503Z,2.61
2018-01-10T06:48:24.865Z,2.56
2018-01-10T06:50:53.207Z,2.59
2018-01-10T06:53:21.467Z,2.40
2018-01-10T06:55:49.968Z,2.35
2018-01-10T06:58:18.427Z,2.48
2018-01-10T07:00:46.795Z,2.38
2018-01-10T07:03:15.093Z,2.34
2018-01-10T07:05:43.461Z,2.23
2018-01-10T07:08:11.735Z,2.10
2018-01-10T07:10:40.235Z,2.36
2018-01-10T07:13:08.524Z,2.39
2018-01-10T07:15:36.887Z,2.15
2018-01-10T07:18:05.179Z,2.16
2018-01-10T07:20:33.494Z,2.39
2018-01-10T07:23:01.772Z,2.35
2018-01-10T07:25:31.747Z,2.31
2018-01-10T07:28:00.091Z,2.45
2018-01-10T07:30:28.411Z,2.46
2018-01-10T07:32:56.738Z,2.43
2018-01-10T07:35:25.040Z,2.62
2018-01-10T07:37:53.928Z,2.38
2018-01-10T07:40:22.247Z,2.45
2018-01-10T07:42:50.887Z,2.41
2018-01-10T07:45:19.377Z,2.46
2018-01-10T07:47:48.527Z,2.38
2018-01-10T07:50:16.843Z,2.39
2018-01-10T07:52:45.246Z,2.34
2018-01-10T07:55:13.539Z,2.45
2018-01-10T07:57:41.960Z,2.31
2018-01-10T08:00:10.779Z,2.30
2018-01-10T08:02:40.040Z,2.49
2018-01-10T08:05:11.526Z,2.43
2018-01-10T08:07:39.803Z,2.43
2018-01-10T08:10:08.291Z,2.33
2018-01-10T08:12:36.800Z,2.44
2018-01-10T08:15:05.137Z,2.40
2018-01-10T08:17:33.551Z,2.37
2018-01-10T08:20:01.985Z,2.35
2018-01-10T08:22:30.393Z,2.27
2018-01-10T08:24:58.998Z,2.35
2018-01-10T08:27:27.393Z,2.34
2018-01-10T08:29:55.671Z,2.18
2018-01-10T08:32:24.206Z,2.20
2018-01-10T08:34:52.658Z,2.05
2018-01-10T08:37:21.914Z,2.10
2018-01-10T08:39:50.205Z,2.22
2018-01-10T08:42:18.505Z,2.34
2018-01-10T08:44:46.790Z,2.34
2018-01-10T08:47:15.297Z,2.06
2018-01-10T08:49:43.598Z,2.04
2018-01-10T08:52:11.910Z,2.20
2018-01-10T08:54:40.330Z,2.49
2018-01-10T08:57:08.802Z,2.24
2018-01-10T08:59:37.172Z,2.03
2018-01-10T09:02:05.497Z,1.86
2018-01-10T09:04:34.031Z,1.83
2018-01-10T09:07:02.322Z,2.13
2018-01-10T09:09:30.682Z,2.34
2018-01-10T09:11:59.043Z,2.27
2018-01-10T09:14:27.538Z,2.28
2018-01-10T09:16:55.863Z,2.58
2018-01-10T09:19:24.151Z,2.78
2018-01-10T09:21:52.598Z,2.61
2018-01-10T09:24:20.889Z,2.63
2018-01-10T09:26:49.350Z,2.72
2018-01-10T09:29:17.623Z,2.70
2018-01-10T09:31:46.095Z,2.77
2018-01-10T09:34:14.347Z,2.54
2018-01-10T09:36:42.662Z,2.61
2018-01-10T09:39:10.958Z,2.59
2018-01-10T09:41:39.430Z,2.43
2018-01-10T09:44:07.778Z,2.37
2018-01-10T09:46:36.102Z,2.46
2018-01-10T09:49:04.432Z,2.73
2018-01-10T09:51:32.791Z,2.71
2018-01-10T09:54:01.091Z,2.76
2018-01-10T09:56:35.748Z,2.69
2018-01-10T09:59:04.134Z,3.01
2018-01-10T10:01:32.437Z,2.83
2018-01-10T10:04:01.009Z,3.02
2018-01-10T10:06:29.468Z,3.23
2018-01-10T10:08:57.762Z,3.13
2018-01-10T10:11:26.071Z,3.33
2018-01-10T10:13:54.455Z,3.35
2018-01-10T10:16:22.846Z,3.44
2018-01-10T10:18:51.183Z,3.49
2018-01-10T10:21:19.529Z,3.35
2018-01-10T10:23:47.806Z,3.16
2018-01-10T10:26:16.115Z,3.17
2018-01-10T10:28:44.535Z,3.07
2018-01-10T10:31:12.846Z,3.41
2018-01-10T10:33:41.120Z,3.24
2018-01-10T10:36:09.412Z,3.36
2018-01-10T10:38:37.684Z,3.93
2018-01-10T10:41:05.984Z,3.89
2018-01-10T10:43:34.300Z,3.76
2018-01-10T10:46:02.709Z,3.64
2018-01-10T10:48:31.041Z,3.79
2018-01-10T10:50:59.657Z,4.25
2018-01-10T10:53:27.972Z,4.30
2018-01-10T10:55:56.499Z,4.49
2018-01-10T10:58:24.948Z,4.72
2018-01-10T11:00:53.802Z,4.52
2018-01-10T11:03:22.155Z,4.28
2018-01-10T11:05:50.610Z,3.75
2018-01-10T11:08:19.144Z,4.30
2018-01-10T11:10:47.513Z,4.24
2018-01-10T11:13:15.804Z,4.47
2018-01-10T11:15:44.174Z,4.48
2018-01-10T11:18:12.462Z,4.68
2018-01-10T11:20:41.046Z,4.74
2018-01-10T11:23:09.386Z,4.74
2018-01-10T11:25:37.815Z,5.29
2018-01-10T11:28:15.060Z,4.84
2018-01-10T11:30:43.780Z,4.86
2018-01-10T11:33:12.130Z,4.64
2018-01-10T11:35:42.123Z,4.68
2018-01-10T11:38:10.551Z,4.56
2018-01-10T11:40:39.119Z,4.78
2018-01-10T11:43:07.390Z,4.91
2018-01-10T11:45:35.784Z,5.05
2018-01-10T11:48:04.064Z,4.86
2018-01-10T11:50:32.516Z,5.11
2018-01-10T11:53:00.805Z,5.32
2018-01-10T11:55:29.134Z,5.30
2018-01-10T11:57:57.494Z,5.03
2018-01-10T12:00:26.166Z,5.07
2018-01-10T12:02:54.482Z,5.55
2018-01-10T12:05:22.774Z,5.79
2018-01-10T12:07:51.390Z,5.92
2018-01-10T12:10:19.775Z,5.20
2018-01-10T12:12:48.146Z,6.83
2018-01-10T12:15:18.003Z,5.85
2018-01-10T12:17:46.735Z,5.90
2018-01-10T12:20:15.254Z,7.94
2018-01-10T12:22:44.065Z,8.87
2018-01-10T12:25:12.663Z,9.09
2018-01-10T12:27:41.084Z,8.94
2018-01-10T12:30:09.640Z,9.46
2018-01-10T12:32:40.167Z,8.76
2018-01-10T12:35:08.652Z,8.89
2018-01-10T12:37:37.046Z,8.29
2018-01-10T12:40:05.572Z,8.12
2018-01-10T12:42:33.883Z,8.11
2018-01-10T12:45:02.344Z,8.14
2018-01-10T12:47:30.715Z,7.55
2018-01-10T12:49:59.014Z,7.19
2018-01-10T12:52:28.497Z,7.80
2018-01-10T12:54:56.972Z,7.23
2018-01-10T12:57:25.503Z,7.09
2018-01-10T12:59:56.640Z,7.82
2018-01-10T13:02:26.055Z,9.37
2018-01-10T13:04:55.867Z,9.52
2018-01-10T13:07:24.398Z,9.29
2018-01-10T13:09:52.979Z,7.82
2018-01-10T13:12:21.374Z,7.06
2018-01-10T13:14:49.694Z,8.84
2018-01-10T13:17:18.039Z,7.38
2018-01-10T13:19:46.726Z,7.09
2018-01-10T13:22:15.067Z,7.60
2018-01-10T13:24:50.295Z,8.42
2018-01-10T13:27:18.658Z,9.53
2018-01-10T13:29:47.026Z,10.17
2018-01-10T13:32:15.627Z,11.12
2018-01-10T13:34:43.887Z,9.00
2018-01-10T13:37:12.227Z,10.37
2018-01-10T13:39:40.562Z,9.88
2018-01-10T13:42:08.973Z,9.85
2018-01-10T13:44:37.290Z,9.37
2018-01-10T13:47:05.670Z,8.26
2018-01-10T13:49:33.959Z,7.91
2018-01-10T13:52:02.291Z,7.57
2018-01-10T13:54:30.597Z,7.18
2018-01-10T13:56:58.966Z,6.23
2018-01-10T13:59:27.398Z,5.87
2018-01-10T14:01:55.827Z,5.68
2018-01-10T14:04:24.114Z,5.62
2018-01-10T14:06:52.443Z,5.56
2018-01-10T14:09:20.859Z,5.28
2018-01-10T14:11:49.428Z,5.04
2018-01-10T14:14:18.614Z,5.17
2018-01-10T14:16:47.002Z,5.28
2018-01-10T14:19:15.275Z,5.44
2018-01-10T14:21:43.603Z,5.48
2018-01-10T14:24:11.924Z,5.44
2018-01-10T14:26:40.312Z,4.97
2018-01-10T14:29:08.580Z,4.66
2018-01-10T14:31:37.069Z,4.55
2018-01-10T14:34:05.356Z,4.64
2018-01-10T14:36:33.683Z,4.65
2018-01-10T14:39:02.078Z,4.40
2018-01-10T14:41:30.510Z,4.47
2018-01-10T14:43:58.795Z,4.60
2018-01-10T14:46:27.262Z,4.76
2018-01-10T14:48:55.528Z,4.40
2018-01-10T14:51:23.847Z,4.41
2018-01-10T14:53:52.151Z,4.14
2018-01-10T14:56:20.468Z,4.04
2018-01-10T14:58:48.781Z,4.28
2018-01-10T15:01:17.120Z,4.41
2018-01-10T15:03:45.424Z,4.23
2018-01-10T15:06:14.127Z,4.11
2018-01-10T15:08:42.515Z,4.00
2018-01-10T15:11:10.856Z,3.84
2018-01-10T15:13:39.291Z,3.71
2018-01-10T15:16:07.635Z,3.49
2018-01-10T15:18:35.922Z,3.70
2018-01-10T15:21:04.263Z,3.65
2018-01-10T15:23:32.572Z,3.58
2018-01-10T15:26:00.994Z,3.52
2018-01-10T15:28:29.315Z,3.64
2018-01-10T15:30:57.623Z,3.77
2018-01-10T15:33:25.946Z,3.91
2018-01-10T15:35:54.255Z,3.88
2018-01-10T15:38:22.571Z,3.66
2018-01-10T15:40:51.262Z,3.67
2018-01-10T15:43:19.554Z,3.46
2018-01-10T15:45:48.272Z,3.48
2018-01-10T15:48:17.009Z,3.56
2018-01-10T15:50:45.784Z,3.53
2018-01-10T15:53:14.234Z,3.51
2018-01-10T15:55:42.579Z,3.64
2018-01-10T15:58:11.159Z,3.43
2018-01-10T16:00:40.284Z,3.63
2018-01-10T16:03:09.174Z,3.50
2018-01-10T16:05:37.552Z,3.65
2018-01-10T16:08:05.875Z,3.50
2018-01-10T16:10:34.230Z,3.47
2018-01-10T16:13:02.589Z,3.53
2018-01-10T16:15:30.907Z,3.47
2018-01-10T16:17:59.235Z,3.43
2018-01-10T16:20:27.558Z,3.41
2018-01-10T16:22:56.504Z,3.32
2018-01-10T16:25:25.057Z,3.31
2018-01-10T16:27:53.412Z,3.34
2018-01-10T16:30:21.717Z,3.35
2018-01-10T16:32:50.098Z,3.45
2018-01-10T16:35:18.459Z,3.51
2018-01-10T16:37:46.757Z,3.44
2018-01-10T16:40:15.067Z,3.45
2018-01-10T16:42:43.379Z,3.58
2018-01-10T16:45:11.707Z,3.52
2018-01-10T16:47:40.018Z,3.64
2018-01-10T16:50:08.490Z,3.39
2018-01-10T16:52:36.800Z,3.47
2018-01-10T16:55:05.541Z,3.38
2018-01-10T16:57:33.944Z,3.48
2018-01-10T17:00:03.568Z,3.49
2018-01-10T17:02:34.226Z,3.70
2018-01-10T17:05:03.971Z,3.62
2018-01-10T17:07:32.331Z,3.63
2018-01-10T17:10:00.687Z,3.51
2018-01-10T17:12:29.030Z,3.48
2018-01-10T17:14:58.326Z,3.21
2018-01-10T17:17:26.695Z,3.23
2018-01-10T17:19:55.091Z,3.26
2018-01-10T17:22:23.400Z,3.36
2018-01-10T17:24:51.708Z,3.51
2018-01-10T17:27:20.070Z,3.41
2018-01-10T17:29:48.466Z,3.24
2018-01-10T17:32:16.810Z,3.23
2018-01-10T17:34:45.088Z,3.31
2018-01-10T17:37:13.388Z,3.29
2018-01-10T17:39:41.679Z,3.39
2018-01-10T17:42:10.020Z,3.51
2018-01-10T17:44:38.460Z,3.49
2018-01-10T17:47:06.779Z,3.40
2018-01-10T17:49:35.199Z,3.10
2018-01-10T17:52:03.720Z,2.85
2018-01-10T17:54:32.035Z,2.86
2018-01-10T17:57:00.372Z,2.95
2018-01-10T17:59:28.676Z,3.14
2018-01-10T18:01:57.017Z,3.13
2018-01-10T18:04:25.362Z,3.06
2018-01-10T18:06:53.701Z,2.94
2018-01-10T18:09:22.022Z,3.04
2018-01-10T18:11:50.373Z,3.02
2018-01-10T18:14:18.807Z,2.97
2018-01-10T18:16:47.258Z,2.90
2018-01-10T18:19:15.899Z,2.53
2018-01-10T18:21:44.223Z,2.46
2018-01-10T18:24:12.511Z,2.49
2018-01-10T18:26:40.836Z,2.58
2018-01-10T18:29:09.240Z,2.52
2018-01-10T18:31:37.576Z,2.63
2018-01-10T18:34:06.021Z,2.54
2018-01-10T18:36:34.610Z,2.50
2018-01-10T18:39:02.876Z,2.70
2018-01-10T18:41:31.172Z,2.76
2018-01-10T18:43:59.480Z,2.73
2018-01-10T18:46:27.800Z,2.79
2018-01-10T18:48:56.227Z,2.64
2018-01-10T18:51:24.582Z,2.65
2018-01-10T18:53:52.862Z,2.63
2018-01-10T18:56:21.204Z,2.62
2018-01-10T18:58:56.062Z,2.62
2018-01-10T19:01:24.468Z,2.61
2018-01-10T19:03:52.723Z,2.62
2018-01-10T19:06:21.204Z,2.61
2018-01-10T19:08:49.499Z,2.58
2018-01-10T19:11:24.689Z,2.56
2018-01-10T19:13:53.058Z,2.46
2018-01-10T19:16:21.462Z,2.62
2018-01-10T19:18:49.936Z,2.63
2018-01-10T19:21:18.414Z,2.48
2018-01-10T19:23:46.908Z,2.38
2018-01-10T19:26:15.235Z,2.47
2018-01-10T19:28:43.600Z,2.55
2018-01-10T19:31:12.131Z,2.64
2018-01-10T19:33:40.434Z,2.75
2018-01-10T19:36:08.729Z,2.78
2018-01-10T19:38:37.156Z,2.67
2018-01-10T19:41:05.524Z,2.66
2018-01-10T19:43:34.138Z,2.71
2018-01-10T19:46:03.064Z,2.69
2018-01-10T19:48:31.363Z,2.78
2018-01-10T19:50:59.799Z,2.76
2018-01-10T19:53:28.080Z,2.78
2018-01-10T19:55:56.411Z,2.74
2018-01-10T19:58:26.390Z,2.65
2018-01-10T20:00:54.923Z,2.64
2018-01-10T20:03:24.471Z,2.69
2018-01-10T20:05:52.837Z,2.62
2018-01-10T20:08:21.125Z,2.85
2018-01-10T20:10:49.453Z,2.94
2018-01-10T20:13:17.942Z,2.98
2018-01-10T20:15:51.406Z,2.86
2018-01-10T20:18:25.152Z,2.91
2018-01-10T20:20:52.526Z,2.95
2018-01-10T20:23:19.864Z,3.02
2018-01-10T20:25:47.262Z,3.10
2018-01-10T20:28:14.618Z,3.03
2018-01-10T20:30:42.116Z,2.81
2018-01-10T20:33:09.514Z,2.74
2018-01-10T20:35:37.944Z,3.00
2018-01-10T20:38:06.268Z,2.93
2018-01-10T20:40:34.642Z,2.87
2018-01-10T20:43:02.997Z,2.94
2018-01-10T20:45:31.392Z,2.99
2018-01-10T20:47:59.941Z,3.03
2018-01-10T20:50:28.261Z,2.94
2018-01-10T20:52:56.539Z,2.89
2018-01-10T20:55:24.847Z,2.91
2018-01-10T20:57:53.148Z,3.04
2018-01-10T21:00:21.802Z,3.22
2018-01-10T21:02:50.110Z,2.91
2018-01-10T21:05:18.452Z,2.89
2018-01-10T21:07:46.876Z,3.03
2018-01-10T21:10:15.240Z,2.93
2018-01-10T21:12:50.347Z,2.92
2018-01-10T21:15:18.879Z,2.77
2018-01-10T21:17:47.157Z,2.94
2018-01-10T21:20:15.671Z,3.00
2018-01-10T21:22:43.951Z,3.04
2018-01-10T21:25:12.287Z,3.10
2018-01-10T21:27:40.582Z,3.06
2018-01-10T21:30:12.751Z,2.98
2018-01-10T21:32:42.275Z,2.87
2018-01-10T21:35:11.215Z,3.01
2018-01-10T21:37:39.532Z,3.00
2018-01-10T21:40:08.045Z,2.99
2018-01-10T21:42:36.368Z,2.85
2018-01-10T21:45:05.143Z,2.87
2018-01-10T21:47:33.457Z,2.95
2018-01-10T21:50:01.867Z,2.75
2018-01-10T21:52:30.278Z,2.88
2018-01-10T21:54:58.794Z,2.79
2018-01-10T21:57:27.612Z,2.85
2018-01-10T21:59:57.288Z,2.95
2018-01-10T22:02:26.666Z,3.02
2018-01-10T22:04:54.946Z,3.03
2018-01-10T22:07:23.323Z,3.16
2018-01-10T22:09:52.520Z,3.09
2018-01-10T22:12:21.706Z,3.14
2018-01-10T22:14:57.480Z,3.08
2018-01-10T22:17:25.860Z,2.97
2018-01-10T22:19:54.156Z,3.03
2018-01-10T22:22:22.690Z,3.19
2018-01-10T22:24:51.033Z,3.12
2018-01-10T22:27:20.233Z,3.07
2018-01-10T22:29:49.249Z,3.14
2018-01-10T22:32:17.793Z,3.12
2018-01-10T22:34:46.280Z,3.00
2018-01-10T22:37:14.659Z,2.93
2018-01-10T22:39:43.696Z,3.07
2018-01-10T22:42:12.037Z,2.96
2018-01-10T22:44:40.888Z,2.86
2018-01-10T22:47:09.419Z,2.83
2018-01-10T22:49:38.051Z,2.82
2018-01-10T22:52:06.658Z,2.78
2018-01-10T22:54:35.071Z,2.86
2018-01-10T22:57:03.773Z,2.90
2018-01-10T22:59:32.167Z,2.74
2018-01-10T23:02:00.580Z,2.78
2018-01-10T23:04:29.596Z,2.87
2018-01-10T23:06:58.167Z,2.87
2018-01-10T23:09:26.607Z,2.86
2018-01-10T23:11:55.337Z,2.83
2018-01-10T23:14:23.654Z,2.84
2018-01-10T23:16:51.987Z,2.82
2018-01-10T23:19:20.339Z,2.97
2018-01-10T23:21:48.680Z,2.96
2018-01-10T23:24:19.024Z,3.10
2018-01-10T23:26:47.358Z,2.91
2018-01-10T23:29:15.682Z,2.89
2018-01-10T23:31:44.034Z,2.87
2018-01-10T23:34:12.334Z,3.01
2018-01-10T23:36:40.866Z,2.91
2018-01-10T23:39:09.241Z,2.84
2018-01-10T23:41:37.726Z,2.90
2018-01-10T23:44:06.282Z,3.01
2018-01-10T23:46:34.682Z,2.99
2018-01-10T23:49:02.987Z,2.95
2018-01-10T23:51:31.306Z,3.01
2018-01-10T23:53:59.605Z,2.85
2018-01-10T23:56:27.993Z,2.90
2018-01-10T23:58:56.268Z,2.91
